createdAt,value
2023-05-09T00:00:15.956Z,84.69
2023-05-09T00:02:45.905Z,85.09
2023-05-09T00:05:15.538Z,83.36
2023-05-09T00:07:47.550Z,84.81
2023-05-09T00:10:17.376Z,84.65
2023-05-09T00:12:45.594Z,85.02
2023-05-09T00:15:15.271Z,85.01
2023-05-09T00:17:45.845Z,85.06
2023-05-09T00:20:14.811Z,84.76
2023-05-09T00:22:43.866Z,84.17
2023-05-09T00:25:14.027Z,84.30
2023-05-09T00:27:42.300Z,83.32
2023-05-09T00:30:11.809Z,82.99
2023-05-09T00:32:41.835Z,82.39
2023-05-09T00:35:10.511Z,82.57
2023-05-09T00:37:39.192Z,82.28
2023-05-09T00:40:10.664Z,82.38
2023-05-09T00:42:40.993Z,81.79
2023-05-09T00:45:14.111Z,81.69
2023-05-09T00:47:43.754Z,81.63
2023-05-09T00:50:13.872Z,81.62
2023-05-09T00:52:43.515Z,81.95
2023-05-09T00:55:12.817Z,81.48
2023-05-09T00:57:43.419Z,81.59
2023-05-09T01:00:13.932Z,81.61
2023-05-09T01:02:42.672Z,81.54
2023-05-09T01:05:11.018Z,81.71
2023-05-09T01:07:47.367Z,81.92
2023-05-09T01:10:23.297Z,81.83
2023-05-09T01:13:00.148Z,81.72
2023-05-09T01:15:36.853Z,81.79
2023-05-09T01:18:10.059Z,82.10
2023-05-09T01:20:41.222Z,81.39
2023-05-09T01:23:47.393Z,82.04
2023-05-09T01:26:22.133Z,82.24
2023-05-09T01:29:28.990Z,81.95
2023-05-09T01:32:00.006Z,82.06
2023-05-09T01:34:30.530Z,81.67
2023-05-09T01:37:05.039Z,81.63
2023-05-09T01:39:35.967Z,81.33
2023-05-09T01:42:08.617Z,81.16
2023-05-09T01:44:41.218Z,80.99
2023-05-09T01:47:11.268Z,80.86
2023-05-09T01:49:42.175Z,80.67
2023-05-09T01:52:12.774Z,81.08
2023-05-09T01:54:42.791Z,81.35
2023-05-09T01:57:13.002Z,81.41
2023-05-09T01:59:46.809Z,81.78
2023-05-09T02:02:20.586Z,81.89
2023-05-09T02:04:49.944Z,82.88
2023-05-09T02:07:21.708Z,82.89
2023-05-09T02:09:53.137Z,82.61
2023-05-09T02:12:21.501Z,84.19
2023-05-09T02:14:49.281Z,83.54
2023-05-09T02:17:19.207Z,83.17
2023-05-09T02:19:49.461Z,83.17
2023-05-09T02:22:17.703Z,84.12
2023-05-09T02:24:46.025Z,84.75
2023-05-09T02:27:15.625Z,85.03
2023-05-09T02:29:46.903Z,84.72
2023-05-09T02:32:22.146Z,84.22
2023-05-09T02:34:52.545Z,84.95
2023-05-09T02:37:22.671Z,85.59
2023-05-09T02:39:50.667Z,86.26
2023-05-09T02:42:25.131Z,85.76
2023-05-09T02:44:57.147Z,86.35
2023-05-09T02:47:28.832Z,87.14
2023-05-09T02:49:56.641Z,86.80
2023-05-09T02:52:25.048Z,87.44
2023-05-09T02:54:54.039Z,88.02
2023-05-09T02:57:24.893Z,87.83
2023-05-09T02:59:53.448Z,88.21
2023-05-09T03:02:21.330Z,88.01
2023-05-09T03:04:53.322Z,87.03
2023-05-09T03:07:21.407Z,87.10
2023-05-09T03:09:49.160Z,87.32
2023-05-09T03:12:22.425Z,87.47
2023-05-09T03:14:51.541Z,86.50
2023-05-09T03:17:22.755Z,85.84
2023-05-09T03:19:52.502Z,86.43
2023-05-09T03:22:20.248Z,86.52
2023-05-09T03:24:51.992Z,86.77
2023-05-09T03:27:22.410Z,84.81
2023-05-09T03:29:50.897Z,84.85
2023-05-09T03:32:26.772Z,84.76
2023-05-09T03:34:57.170Z,85.22
2023-05-09T03:37:27.038Z,86.47
2023-05-09T03:39:55.207Z,86.11
2023-05-09T03:42:22.959Z,86.37
2023-05-09T03:44:53.607Z,85.47
2023-05-09T03:47:22.188Z,85.00
2023-05-09T03:49:51.204Z,85.19
2023-05-09T03:52:21.479Z,86.44
2023-05-09T03:54:51.684Z,85.94
2023-05-09T03:57:20.100Z,86.44
2023-05-09T03:59:49.629Z,85.89
2023-05-09T04:02:22.726Z,85.94
2023-05-09T04:04:51.361Z,85.74
2023-05-09T04:07:22.876Z,85.34
2023-05-09T04:09:54.038Z,85.23
2023-05-09T04:12:22.816Z,84.76
2023-05-09T04:14:53.121Z,85.09
2023-05-09T04:17:21.948Z,85.00
2023-05-09T04:19:52.591Z,85.84
2023-05-09T04:22:22.297Z,85.95
2023-05-09T04:24:50.563Z,85.82
2023-05-09T04:27:18.373Z,85.46
2023-05-09T04:29:46.610Z,84.99
2023-05-09T04:32:14.914Z,84.88
2023-05-09T04:34:43.069Z,83.49
2023-05-09T04:37:11.087Z,82.91
2023-05-09T04:39:42.684Z,82.50
2023-05-09T04:42:11.797Z,82.50
2023-05-09T04:44:39.981Z,81.93
2023-05-09T04:47:09.398Z,81.59
2023-05-09T04:49:37.444Z,81.67
2023-05-09T04:52:08.221Z,80.67
2023-05-09T04:54:36.254Z,80.89
2023-05-09T04:57:17.336Z,80.90
2023-05-09T04:59:49.083Z,81.35
2023-05-09T05:02:17.162Z,81.29
2023-05-09T05:04:46.295Z,81.28
2023-05-09T05:07:22.285Z,81.62
2023-05-09T05:09:50.104Z,80.62
2023-05-09T05:12:20.138Z,80.39
2023-05-09T05:14:50.413Z,80.32
2023-05-09T05:17:18.488Z,79.34
2023-05-09T05:19:46.667Z,79.63
2023-05-09T05:22:15.626Z,80.07
2023-05-09T05:24:43.943Z,79.59
2023-05-09T05:27:14.546Z,79.76
2023-05-09T05:29:44.152Z,80.20
2023-05-09T05:32:13.855Z,80.98
2023-05-09T05:34:42.569Z,80.70
2023-05-09T05:37:10.783Z,79.75
2023-05-09T05:39:40.446Z,79.33
2023-05-09T05:42:08.332Z,79.57
2023-05-09T05:44:37.889Z,79.69
2023-05-09T05:47:08.110Z,79.58
2023-05-09T05:49:39.676Z,79.77
2023-05-09T05:52:08.980Z,78.31
2023-05-09T05:54:37.372Z,79.25
2023-05-09T05:57:08.883Z,77.92
2023-05-09T05:59:38.792Z,77.98
2023-05-09T06:02:09.790Z,78.16
2023-05-09T06:04:40.195Z,76.79
2023-05-09T06:07:10.467Z,76.25
2023-05-09T06:09:39.447Z,75.22
2023-05-09T06:12:07.500Z,73.89
2023-05-09T06:14:35.365Z,73.16
2023-05-09T06:17:04.543Z,71.84
2023-05-09T06:19:37.317Z,70.95
2023-05-09T06:22:06.058Z,71.89
2023-05-09T06:24:36.467Z,70.60
2023-05-09T06:27:05.006Z,68.36
2023-05-09T06:29:34.115Z,68.80
2023-05-09T06:32:07.962Z,65.49
2023-05-09T06:34:40.749Z,64.87
2023-05-09T06:37:09.155Z,65.75
2023-05-09T06:39:39.415Z,66.18
2023-05-09T06:42:12.081Z,68.10
2023-05-09T06:44:46.054Z,66.19
2023-05-09T06:47:14.998Z,67.62
2023-05-09T06:49:46.487Z,67.16
2023-05-09T06:52:16.340Z,68.14
2023-05-09T06:54:51.514Z,69.15
2023-05-09T06:57:20.797Z,68.87
2023-05-09T06:59:49.838Z,68.40
2023-05-09T07:02:20.821Z,68.18
2023-05-09T07:04:51.316Z,68.80
2023-05-09T07:07:19.478Z,67.93
2023-05-09T07:09:52.897Z,66.79
2023-05-09T07:12:25.492Z,67.53
2023-05-09T07:14:56.925Z,68.88
2023-05-09T07:17:25.829Z,68.56
2023-05-09T07:19:56.034Z,66.55
2023-05-09T07:22:28.767Z,64.55
2023-05-09T07:24:59.794Z,64.23
2023-05-09T07:27:29.502Z,62.32
2023-05-09T07:29:57.911Z,62.92
2023-05-09T07:32:28.949Z,62.12
2023-05-09T07:35:01.986Z,61.36
2023-05-09T07:37:29.808Z,61.18
2023-05-09T07:39:58.838Z,60.02
2023-05-09T07:42:30.330Z,62.63
2023-05-09T07:44:59.100Z,64.31
2023-05-09T07:47:27.119Z,62.57
2023-05-09T07:49:59.381Z,63.34
2023-05-09T07:52:27.939Z,63.83
2023-05-09T07:54:58.294Z,62.10
2023-05-09T07:57:28.461Z,62.79
2023-05-09T07:59:57.790Z,62.43
2023-05-09T08:02:28.860Z,60.13
2023-05-09T08:04:58.013Z,63.10
2023-05-09T08:07:30.545Z,64.02
2023-05-09T08:10:01.790Z,64.69
2023-05-09T08:12:31.410Z,63.15
2023-05-09T08:15:03.759Z,65.74
2023-05-09T08:17:34.878Z,67.42
2023-05-09T08:20:10.247Z,67.62
2023-05-09T08:22:42.658Z,68.16
2023-05-09T08:25:15.895Z,68.61
2023-05-09T08:27:44.979Z,68.45
2023-05-09T08:30:14.934Z,68.02
2023-05-09T08:32:42.982Z,68.62
2023-05-09T08:35:11.733Z,67.37
2023-05-09T08:37:41.273Z,68.09
2023-05-09T08:40:10.383Z,64.90
2023-05-09T08:45:15.218Z,67.84
2023-05-09T08:47:43.847Z,68.27
2023-05-09T08:50:15.786Z,67.10
2023-05-09T08:52:45.794Z,66.45
2023-05-09T08:55:14.276Z,65.99
2023-05-09T08:57:45.388Z,65.82
2023-05-09T09:00:17.947Z,63.83
2023-05-09T09:02:48.172Z,63.78
2023-05-09T09:05:34.097Z,62.96
2023-05-09T09:08:12.662Z,60.75
2023-05-09T09:10:43.343Z,61.91
2023-05-09T09:13:14.251Z,62.44
2023-05-09T09:15:50.751Z,64.03
2023-05-09T09:18:25.452Z,63.40
2023-05-09T09:20:57.982Z,64.37
2023-05-09T09:23:31.614Z,63.64
2023-05-09T09:26:02.370Z,64.78
2023-05-09T09:28:33.012Z,65.04
2023-05-09T09:31:02.301Z,62.84
2023-05-09T09:33:31.097Z,63.29
2023-05-09T09:36:02.148Z,65.27
2023-05-09T09:38:41.143Z,64.27
2023-05-09T09:41:13.572Z,65.28
2023-05-09T09:43:48.147Z,64.05
2023-05-09T09:46:20.415Z,64.22
2023-05-09T09:48:53.251Z,65.99
2023-05-09T09:51:21.784Z,64.02
2023-05-09T09:53:52.075Z,66.46
2023-05-09T09:56:22.231Z,65.36
2023-05-09T09:58:51.068Z,64.64
2023-05-09T10:01:22.126Z,63.36
2023-05-09T10:03:50.210Z,65.01
2023-05-09T10:06:20.167Z,65.94
2023-05-09T10:08:49.103Z,64.22
2023-05-09T10:11:22.428Z,65.53
2023-05-09T10:13:52.763Z,65.17
2023-05-09T10:16:25.914Z,63.66
2023-05-09T10:19:08.164Z,65.27
2023-05-09T10:21:39.250Z,63.80
2023-05-09T10:24:11.378Z,64.80
2023-05-09T10:26:47.694Z,65.59
2023-05-09T10:29:27.613Z,64.84
2023-05-09T10:32:02.987Z,65.49
2023-05-09T10:34:37.553Z,65.97
2023-05-09T10:37:07.548Z,65.48
2023-05-09T10:39:37.355Z,64.72
2023-05-09T10:42:09.180Z,65.34
2023-05-09T10:44:39.185Z,64.68
2023-05-09T10:47:08.228Z,64.07
2023-05-09T10:49:37.583Z,62.79
2023-05-09T10:52:06.422Z,64.08
2023-05-09T10:54:39.286Z,63.18
2023-05-09T10:57:11.211Z,60.58
2023-05-09T10:59:43.114Z,60.81
2023-05-09T11:02:15.033Z,60.49
2023-05-09T11:04:44.634Z,60.58
2023-05-09T11:07:38.664Z,59.92
2023-05-09T11:10:14.806Z,60.62
2023-05-09T11:13:02.817Z,64.30
2023-05-09T11:15:34.829Z,68.28
2023-05-09T11:18:07.886Z,72.81
2023-05-09T11:20:38.914Z,76.35
2023-05-09T11:23:07.824Z,77.61
2023-05-09T11:25:36.098Z,77.41
2023-05-09T11:28:06.663Z,78.44
2023-05-09T11:30:41.129Z,77.73
2023-05-09T11:33:24.242Z,76.18
2023-05-09T11:36:17.313Z,70.64
2023-05-09T11:38:45.677Z,69.68
2023-05-09T11:41:13.954Z,68.18
2023-05-09T11:43:45.689Z,69.57
2023-05-09T11:46:17.949Z,67.85
2023-05-09T11:48:46.043Z,66.07
2023-05-09T11:51:19.009Z,68.36
2023-05-09T11:53:54.318Z,68.71
2023-05-09T11:56:23.974Z,68.74
2023-05-09T11:58:54.348Z,72.21
2023-05-09T12:01:25.381Z,71.03
2023-05-09T12:03:54.163Z,72.00
2023-05-09T12:06:22.867Z,73.23
2023-05-09T12:08:55.059Z,71.88
2023-05-09T12:11:24.136Z,70.85
2023-05-09T12:13:54.059Z,68.79
2023-05-09T12:16:25.225Z,66.68
2023-05-09T12:18:58.449Z,68.32
2023-05-09T12:21:28.366Z,64.38
2023-05-09T12:23:57.232Z,65.82
2023-05-09T12:26:28.402Z,66.19
2023-05-09T12:28:58.488Z,65.38
2023-05-09T12:31:28.140Z,64.38
2023-05-09T12:33:56.655Z,64.45
2023-05-09T12:36:24.943Z,62.65
2023-05-09T12:38:56.892Z,63.60
2023-05-09T12:43:59.479Z,61.65
2023-05-09T12:46:31.098Z,63.54
2023-05-09T12:48:59.129Z,62.87
2023-05-09T12:51:27.843Z,64.81
2023-05-09T12:54:18.510Z,58.48
2023-05-09T12:57:04.578Z,57.43
2023-05-09T13:02:23.153Z,58.34
2023-05-09T13:04:51.078Z,59.77
2023-05-09T13:07:19.750Z,59.98
2023-05-09T13:09:58.085Z,58.71
2023-05-09T13:12:28.645Z,60.11
2023-05-09T13:14:58.438Z,62.20
2023-05-09T13:17:26.447Z,60.63
2023-05-09T13:19:55.265Z,60.76
2023-05-09T13:22:23.729Z,60.90
2023-05-09T13:24:58.776Z,62.77
2023-05-09T13:27:28.015Z,61.33
2023-05-09T13:29:58.369Z,60.49
2023-05-09T13:32:27.085Z,62.67
2023-05-09T13:34:55.657Z,63.39
2023-05-09T13:37:26.483Z,60.86
2023-05-09T13:39:58.327Z,62.15
2023-05-09T13:42:29.279Z,62.13
2023-05-09T13:45:02.075Z,66.07
2023-05-09T13:47:30.595Z,61.82
2023-05-09T13:49:59.520Z,61.20
2023-05-09T13:52:27.474Z,63.01
2023-05-09T13:54:57.952Z,64.76
2023-05-09T13:57:29.473Z,67.75
2023-05-09T13:59:59.505Z,65.43
2023-05-09T14:02:29.229Z,67.62
2023-05-09T14:04:59.002Z,67.27
2023-05-09T14:07:28.171Z,67.93
2023-05-09T14:10:08.412Z,69.03
2023-05-09T14:12:44.549Z,67.52
2023-05-09T14:15:14.243Z,66.54
2023-05-09T14:17:48.273Z,67.01
2023-05-09T14:20:19.432Z,67.36
2023-05-09T14:22:53.318Z,67.43
2023-05-09T14:25:27.405Z,69.33
2023-05-09T14:28:04.713Z,71.47
2023-05-09T14:30:37.049Z,72.89
2023-05-09T14:33:05.942Z,74.89
2023-05-09T14:35:53.840Z,74.65
2023-05-09T14:38:22.802Z,75.14
2023-05-09T14:40:50.814Z,75.70
2023-05-09T14:43:22.700Z,75.03
2023-05-09T14:45:53.513Z,73.00
2023-05-09T14:48:21.992Z,72.64
2023-05-09T14:50:56.174Z,73.68
2023-05-09T14:53:25.606Z,72.41
2023-05-09T14:55:54.024Z,72.28
2023-05-09T14:58:30.796Z,71.33
2023-05-09T15:01:07.336Z,71.14
2023-05-09T15:03:39.532Z,70.59
2023-05-09T15:06:18.043Z,71.85
2023-05-09T15:08:53.345Z,72.49
2023-05-09T15:11:28.601Z,72.19
2023-05-09T15:13:59.255Z,72.66
2023-05-09T15:16:53.516Z,70.84
2023-05-09T15:19:23.629Z,69.80
2023-05-09T15:24:35.606Z,72.27
2023-05-09T15:27:13.625Z,71.47
2023-05-09T15:29:44.789Z,72.70
2023-05-09T15:32:15.201Z,75.63
2023-05-09T15:34:48.344Z,79.20
2023-05-09T15:37:23.335Z,80.22
2023-05-09T15:39:54.211Z,82.55
2023-05-09T15:42:26.117Z,85.59
2023-05-09T15:44:54.024Z,88.66
2023-05-09T15:47:24.030Z,88.11
2023-05-09T15:49:55.050Z,88.43
2023-05-09T15:52:30.627Z,90.62
2023-05-09T15:54:58.947Z,90.13
2023-05-09T15:57:27.793Z,91.94
2023-05-09T16:00:01.020Z,92.18
2023-05-09T16:02:31.234Z,92.60
2023-05-09T16:05:03.554Z,93.23
2023-05-09T16:07:35.360Z,93.98
2023-05-09T16:10:07.473Z,94.69
2023-05-09T16:12:35.652Z,94.27
2023-05-09T16:15:06.292Z,94.51
2023-05-09T16:17:36.207Z,94.71
2023-05-09T16:20:10.121Z,94.78
2023-05-09T16:22:38.012Z,94.18
2023-05-09T16:25:09.516Z,94.38
2023-05-09T16:27:39.944Z,91.98
2023-05-09T16:30:10.358Z,92.77
2023-05-09T16:32:39.675Z,93.79
2023-05-09T16:35:09.063Z,92.14
2023-05-09T16:37:38.492Z,93.07
2023-05-09T16:40:07.599Z,92.75
2023-05-09T16:42:36.041Z,93.29
2023-05-09T16:45:06.720Z,94.78
2023-05-09T16:47:35.417Z,95.12
2023-05-09T16:50:06.346Z,94.13
2023-05-09T16:52:36.014Z,91.93
2023-05-09T16:55:05.929Z,93.31
2023-05-09T16:57:36.958Z,93.00
2023-05-09T17:00:07.883Z,89.83
2023-05-09T17:02:37.080Z,93.59
2023-05-09T17:05:08.059Z,93.16
2023-05-09T17:07:36.737Z,94.68
2023-05-09T17:10:07.897Z,95.22
2023-05-09T17:12:39.192Z,95.42
2023-05-09T17:15:12.974Z,94.47
2023-05-09T17:17:41.379Z,94.04
2023-05-09T17:20:14.564Z,94.50
2023-05-09T17:22:49.278Z,94.87
2023-05-09T17:25:33.402Z,95.00
2023-05-09T17:28:02.544Z,94.04
2023-05-09T17:30:30.708Z,95.07
2023-05-09T17:32:58.766Z,94.83
2023-05-09T17:35:28.400Z,95.30
2023-05-09T17:37:56.500Z,95.45
2023-05-09T17:40:24.994Z,95.15
2023-05-09T17:42:53.335Z,95.48
2023-05-09T17:45:24.720Z,95.49
2023-05-09T17:47:52.581Z,94.33
2023-05-09T17:50:24.309Z,95.65
2023-05-09T17:52:58.767Z,95.97
2023-05-09T17:55:26.963Z,96.60
2023-05-09T17:57:54.995Z,96.03
2023-05-09T18:00:23.633Z,94.46
2023-05-09T18:02:52.324Z,92.82
2023-05-09T18:05:21.417Z,93.49
2023-05-09T18:08:03.265Z,93.22
2023-05-09T18:10:33.014Z,92.48
2023-05-09T18:13:03.345Z,92.24
2023-05-09T18:15:32.636Z,92.00
2023-05-09T18:18:02.722Z,93.68
2023-05-09T18:20:33.369Z,91.68
2023-05-09T18:23:02.743Z,90.43
2023-05-09T18:25:35.426Z,91.96
2023-05-09T18:28:03.575Z,89.61
2023-05-09T18:30:32.559Z,91.91
2023-05-09T18:33:02.694Z,93.50
2023-05-09T18:35:31.683Z,93.81
2023-05-09T18:38:02.107Z,94.27
2023-05-09T18:40:33.119Z,94.77
2023-05-09T18:43:03.803Z,93.82
2023-05-09T18:45:34.456Z,93.01
2023-05-09T18:48:07.213Z,93.86
2023-05-09T18:50:44.075Z,95.67
2023-05-09T18:53:12.949Z,96.43
2023-05-09T18:55:43.007Z,96.27
2023-05-09T18:58:12.626Z,94.67
2023-05-09T19:00:44.126Z,96.07
2023-05-09T19:03:13.200Z,94.98
2023-05-09T19:05:45.982Z,94.47
2023-05-09T19:08:15.255Z,95.05
2023-05-09T19:10:43.812Z,95.42
2023-05-09T19:13:16.291Z,93.94
2023-05-09T19:15:45.050Z,94.93
2023-05-09T19:18:16.695Z,94.74
2023-05-09T19:20:47.300Z,95.33
2023-05-09T19:23:18.262Z,95.86
2023-05-09T19:25:50.320Z,96.36
2023-05-09T19:28:23.024Z,96.17
2023-05-09T19:30:51.647Z,96.94
2023-05-09T19:33:22.350Z,97.57
2023-05-09T19:35:53.113Z,96.74
2023-05-09T19:38:21.186Z,96.75
2023-05-09T19:40:50.293Z,96.53
2023-05-09T19:43:18.153Z,96.67
2023-05-09T19:45:47.767Z,96.08
2023-05-09T19:48:20.476Z,97.56
2023-05-09T19:50:50.672Z,98.04
2023-05-09T19:53:18.495Z,98.38
2023-05-09T19:55:47.873Z,97.69
2023-05-09T19:58:17.879Z,98.47
2023-05-09T20:00:49.756Z,98.25
2023-05-09T20:03:19.577Z,99.95
2023-05-09T20:05:48.718Z,98.06
2023-05-09T20:08:16.796Z,97.48
2023-05-09T20:10:47.111Z,98.10
2023-05-09T20:13:15.599Z,98.11
2023-05-09T20:15:44.838Z,98.33
2023-05-09T20:18:16.577Z,98.65
2023-05-09T20:20:44.878Z,97.91
2023-05-09T20:23:16.358Z,98.28
2023-05-09T20:25:47.336Z,98.06
2023-05-09T20:28:19.945Z,98.49
2023-05-09T20:30:49.540Z,98.85
2023-05-09T20:33:19.812Z,99.08
2023-05-09T20:35:50.488Z,98.03
2023-05-09T20:38:18.410Z,98.46
2023-05-09T20:40:52.206Z,98.04
2023-05-09T20:43:20.981Z,97.78
2023-05-09T20:45:59.174Z,98.36
2023-05-09T20:48:37.679Z,98.19
2023-05-09T20:51:07.635Z,98.33
2023-05-09T20:53:39.226Z,98.29
2023-05-09T20:56:12.299Z,98.50
2023-05-09T20:58:40.138Z,96.96
2023-05-09T21:01:10.236Z,98.08
2023-05-09T21:03:42.249Z,97.84
2023-05-09T21:06:13.357Z,97.78
2023-05-09T21:08:42.973Z,97.65
2023-05-09T21:11:13.405Z,96.79
2023-05-09T21:13:50.654Z,97.29
2023-05-09T21:16:22.178Z,97.38
2023-05-09T21:18:54.445Z,96.77
2023-05-09T21:21:22.554Z,97.62
2023-05-09T21:23:51.701Z,97.45
2023-05-09T21:26:22.556Z,98.16
2023-05-09T21:28:53.200Z,97.67
2023-05-09T21:31:24.690Z,98.04
2023-05-09T21:33:57.990Z,98.27
2023-05-09T21:36:27.158Z,97.72
2023-05-09T21:38:55.829Z,97.34
2023-05-09T21:41:25.048Z,97.92
2023-05-09T21:43:53.289Z,98.26
2023-05-09T21:46:22.029Z,98.28
2023-05-09T21:48:52.135Z,98.66
2023-05-09T21:51:25.345Z,98.21
2023-05-09T21:53:54.762Z,98.41
2023-05-09T21:56:24.757Z,99.18
2023-05-09T21:58:55.268Z,99.39
2023-05-09T22:01:23.173Z,98.88
2023-05-09T22:03:51.847Z,98.89
2023-05-09T22:06:21.815Z,98.22
2023-05-09T22:08:54.508Z,98.94
2023-05-09T22:11:23.399Z,98.93
2023-05-09T22:13:53.476Z,98.48
2023-05-09T22:16:22.578Z,98.58
2023-05-09T22:18:56.987Z,98.62
2023-05-09T22:21:30.601Z,98.23
2023-05-09T22:24:00.664Z,97.19
2023-05-09T22:26:29.493Z,97.64
2023-05-09T22:28:59.350Z,98.31
2023-05-09T22:31:28.870Z,97.83
2023-05-09T22:33:57.745Z,97.70
2023-05-09T22:36:26.758Z,96.98
2023-05-09T22:38:55.729Z,97.33
2023-05-09T22:41:29.572Z,98.42
2023-05-09T22:43:59.010Z,98.47
2023-05-09T22:46:27.451Z,98.27
2023-05-09T22:48:57.689Z,98.52
2023-05-09T22:51:28.697Z,98.05
2023-05-09T22:53:57.794Z,98.09
2023-05-09T22:56:27.651Z,98.51
2023-05-09T22:59:01.512Z,97.88
2023-05-09T23:01:30.455Z,97.47
2023-05-09T23:03:58.747Z,98.31
2023-05-09T23:06:31.189Z,97.17
2023-05-09T23:09:00.976Z,97.78
2023-05-09T23:11:32.977Z,97.43
2023-05-09T23:14:06.654Z,97.77
2023-05-09T23:16:34.639Z,97.94
2023-05-09T23:19:09.661Z,97.62
2023-05-09T23:21:38.256Z,97.45
2023-05-09T23:24:14.019Z,97.16
2023-05-09T23:26:43.757Z,97.80
2023-05-09T23:29:13.147Z,97.74
2023-05-09T23:31:42.338Z,97.97
2023-05-09T23:34:12.514Z,97.95
2023-05-09T23:36:48.566Z,97.33
2023-05-09T23:39:18.460Z,97.63
2023-05-09T23:41:52.354Z,97.72
2023-05-09T23:44:22.749Z,97.59
2023-05-09T23:47:00.589Z,97.60
2023-05-09T23:49:34.780Z,98.94
2023-05-09T23:52:04.423Z,98.59
2023-05-09T23:54:33.129Z,95.05
2023-05-09T23:57:04.785Z,96.39
2023-05-09T23:59:33.194Z,95.34
